Flight Track Log - Related Links

Times and Time Zones

All times are in EDT time to prevent confusion due to time zone crossing. See the JIA2328 flight status page for this flight to view local times or setup timezone preferences in your user account.


Time Position Orientation Groundspeed Altitude Reporting Facility
EDT Latitude Longitude Course Direction KTS MPH feet Rate Location/Type
Fri 06:02:43 PM 35.1928 -80.9331 106° East 162 186 1,600  Level Atlanta Center
Fri 06:03:26 PM 35.1553 -80.9294 175° South 193 222 3,000 2,400 Climbing Atlanta Center
Fri 06:04:33 PM 35.1153 -80.8419 119° Southeast 295 339 6,000 2,829 Climbing Atlanta Center
Fri 06:05:00 PM 35.1000 -80.6332 109° East  Level FlightAware Approximate
Fri 06:05:46 PM 35.0936 -80.7286 103° East 316 364 9,600  Level Atlanta Center
Fri 06:06:00 PM 35.0667 -80.5112 90° East  Level FlightAware Approximate
Fri 06:06:46 PM 35.0764 -80.6381 103° East 318 366 11,600  Level Atlanta Center
Fri 06:07:00 PM 35.0399 -80.3870 106° East  Level FlightAware Approximate
Fri 06:09:10 PM 35.0261 -80.3603 102° East 333 383 17,000  Level Washington Center
Fri 06:10:11 PM 35.0058 -80.2375 101° East 351 404 18,600 1,008 Climbing Washington Center
Fri 06:11:09 PM 34.9792 -80.1142 105° East 370 426 19,000 202 Climbing Washington Center
Fri 06:12:10 PM 34.9519 -80.0089 107° East 370 426 19,000  Level Washington Center
Fri 06:13:10 PM 34.9375 -79.8864 98° East 364 419 19,000  Level Washington Center
Fri 06:14:11 PM 34.9442 -79.7625 86° East 358 412 19,000  Level Washington Center
Fri 06:15:09 PM 34.9483 -79.6361 88° East 358 412 19,000  Level Washington Center
Fri 06:16:10 PM 34.9544 -79.5147 86° East 358 412 19,000  Level Washington Center
Fri 06:17:10 PM 34.9606 -79.3908 87° East 363 418 19,000  Level Washington Center
Fri 06:18:11 PM 34.9667 -79.2694 86° East 363 418 19,000  Level Washington Center
Fri 06:19:11 PM 34.9725 -79.1456 87° East 363 418 19,000  Level Washington Center
Fri 06:20:09 PM 34.9761 -79.0214 88° East 363 418 19,000  Level Washington Center
Fri 06:21:10 PM 34.9836 -78.9003 86° East 363 418 19,000  Level Washington Center
Fri 06:22:10 PM 34.9722 -78.7781 96° East 363 418 19,000 -353 Level Washington Center
Fri 06:23:09 PM 34.9567 -78.6583 99° East 363 418 18,300 -1,210 Descending Washington Center
Fri 06:24:09 PM 34.9431 -78.5414 98° East 363 418 16,600 -1,636 Descending Washington Center
Fri 06:25:10 PM 34.9289 -78.4319 99° East 345 397 15,000 -1,525 Descending Washington Center
Fri 06:26:11 PM 34.9169 -78.3225 98° East 334 384 13,500 -1,500 Descending Washington Center
Fri 06:27:10 PM 34.9047 -78.2158 98° East 323 372 12,000 -1,815 Descending Washington Center
Fri 06:28:10 PM 34.8900 -78.1139 100° East 315 362 9,900 -1,983 Descending Washington Center
Fri 06:29:11 PM 34.8797 -78.0150 97° East 303 349 8,000 -1,966 Descending Washington Center
Fri 06:30:09 PM 34.8689 -77.9211 98° East 292 336 6,000 -1,932 Descending Washington Center
Fri 06:31:09 PM 34.8561 -77.8294 100° East 287 330 4,200 -1,388 Descending Washington Center
Fri 06:32:10 PM 34.8453 -77.7431 99° East 267 307 3,200 -984 Descending Washington Center
Fri 06:33:11 PM 34.8342 -77.6644 100° East 229 264 2,200 -984 Descending Washington Center

Login

Don't have an account? Register now (free) for customized features, flight alerts, and more!